Time;durP1;ratioP1;P1;durP2;ratioP2;P2;SDS_P1;SDS_P2;PMS_P1;PMS_P2;Temp;Humidity;BMP_temperature;BMP_pressure;BME280_temperature;BME280_humidity;BME280_pressure;Samples;Min_cycle;Max_cycle;Signal;HPM_P1;HPM_P2
2021/05/06 00:07:37;;;;;;;4.78;1.08;;;14.70;96.70;;;;;;4910170;28;20055;-75
2021/05/06 00:36:12;;;;;;;5.15;1.38;;;14.20;96.70;;;;;;4938864;28;20151;-75
2021/05/06 00:40:21;;;;;;;5.15;0.80;;;14.00;96.70;;;;;;4900118;29;20082;-75
2021/05/06 01:06:22;;;;;;;6.05;1.08;;;13.80;96.70;;;;;;4903236;29;20192;-75
2021/05/06 01:12:58;;;;;;;4.78;0.93;;;13.70;96.70;;;;;;4893037;29;20112;-75
2021/05/06 01:23:48;;;;;;;5.35;1.30;;;13.70;96.70;;;;;;4904931;29;20122;-75
2021/05/06 01:58:29;;;;;;;7.97;0.95;;;13.40;96.70;;;;;;4843587;29;20121;-75
2021/05/06 02:02:18;;;;;;;4.05;0.93;;;13.40;96.70;;;;;;4814547;29;20629;-75
2021/05/06 02:08:53;;;;;;;5.78;1.13;;;13.10;96.70;;;;;;4900265;29;20419;-75
2021/05/06 02:19:44;;;;;;;6.20;1.25;;;13.00;96.70;;;;;;4883155;29;20032;-75
2021/05/06 02:23:44;;;;;;;4.75;1.00;;;13.00;96.70;;;;;;4886360;29;20055;-75
2021/05/06 02:26:13;;;;;;;6.03;1.48;;;13.10;96.70;;;;;;4881320;29;20565;-75
2021/05/06 02:28:40;;;;;;;6.13;1.48;;;13.20;96.70;;;;;;4883498;29;20061;-75
2021/05/06 02:31:08;;;;;;;5.20;1.33;;;13.10;96.70;;;;;;4887778;29;20284;-75
2021/05/06 02:33:36;;;;;;;3.67;1.40;;;13.00;96.70;;;;;;4918432;29;20056;-75
2021/05/06 02:36:06;;;;;;;3.67;0.93;;;13.00;96.70;;;;;;4903566;29;20052;-75
2021/05/06 02:38:34;;;;;;;2.70;1.10;;;13.00;96.70;;;;;;4899622;29;20101;-75
2021/05/06 02:41:29;;;;;;;5.28;1.30;;;13.10;96.70;;;;;;4912816;29;20539;-75
2021/05/06 02:43:57;;;;;;;5.03;1.35;;;13.10;96.70;;;;;;4900701;29;20532;-75
2021/05/06 02:46:25;;;;;;;3.53;1.02;;;13.10;96.70;;;;;;4914561;29;20527;-75
2021/05/06 02:58:07;;;;;;;5.18;1.17;;;12.90;96.70;;;;;;4873641;29;20108;-74
2021/05/06 03:03:22;;;;;;;3.20;0.95;;;13.00;96.70;;;;;;4850019;29;20132;-75
2021/05/06 03:05:55;;;;;;;3.03;1.08;;;12.90;96.70;;;;;;4840601;29;20633;-75
2021/05/06 03:08:30;;;;;;;3.90;1.42;;;12.90;96.70;;;;;;4854347;29;20148;-74
2021/05/06 03:11:15;;;;;;;4.23;1.33;;;12.90;96.70;;;;;;4851888;29;20044;-74
2021/05/06 03:23:00;;;;;;;4.13;1.00;;;12.90;96.70;;;;;;4808068;29;20255;-75
2021/05/06 03:26:24;;;;;;;6.40;1.42;;;13.00;96.70;;;;;;5063726;27;20852;-75
2021/05/06 03:29:00;;;;;;;3.88;1.30;;;13.00;96.70;;;;;;5067483;28;20186;-76
2021/05/06 03:46:32;;;;;;;3.90;1.30;;;12.90;96.70;;;;;;5038159;28;20040;-75
2021/05/06 04:26:58;;;;;;;5.68;1.42;;;12.70;96.70;;;;;;5013028;28;20044;-77
2021/05/06 04:37:54;;;;;;;3.65;1.15;;;12.90;96.70;;;;;;5003117;28;20042;-77
2021/05/06 04:56:46;;;;;;;7.90;1.52;;;13.20;96.70;;;;;;5037345;28;20040;-77
2021/05/06 05:10:25;;;;;;;8.43;1.50;;;13.60;96.70;;;;;;5029939;28;20045;-77
2021/05/06 05:18:23;;;;;;;7.87;1.70;;;13.80;96.70;;;;;;5031498;28;20054;-80
2021/05/06 05:23:48;;;;;;;9.38;1.95;;;14.30;96.70;;;;;;5038106;28;20055;-78
2021/05/06 05:26:16;;;;;;;10.10;2.03;;;14.70;96.70;;;;;;5022180;28;20237;-79
2021/05/06 05:28:44;;;;;;;8.00;1.98;;;14.80;96.70;;;;;;5017741;28;20135;-78
2021/05/06 05:31:11;;;;;;;9.70;1.98;;;14.90;96.70;;;;;;5022439;28;20057;-82
2021/05/06 05:33:54;;;;;;;11.50;2.20;;;15.00;96.70;;;;;;5037207;28;20042;-79
2021/05/06 05:36:24;;;;;;;8.27;1.52;;;15.10;96.70;;;;;;5040908;28;20053;-79
2021/05/06 05:39:12;;;;;;;11.32;2.28;;;15.20;96.70;;;;;;5043217;28;20067;-80
2021/05/06 05:44:55;;;;;;;9.00;2.08;;;15.30;96.70;;;;;;5034399;28;20055;-79
2021/05/06 05:55:20;;;;;;;14.68;3.03;;;15.50;96.70;;;;;;5033302;28;20095;-78
2021/05/06 05:57:48;;;;;;;13.90;2.65;;;15.60;96.70;;;;;;5033891;28;20052;-79
2021/05/06 06:00:17;;;;;;;15.35;2.70;;;15.80;96.70;;;;;;5033952;28;20042;-79
2021/05/06 06:02:45;;;;;;;13.82;2.80;;;15.90;96.70;;;;;;5040651;28;20052;-79
2021/05/06 06:05:13;;;;;;;12.73;3.15;;;16.00;96.70;;;;;;5041560;28;20546;-80
2021/05/06 06:07:41;;;;;;;14.18;3.35;;;16.10;96.70;;;;;;5021990;28;20403;-80
2021/05/06 06:10:10;;;;;;;18.23;3.53;;;16.10;96.70;;;;;;5036287;28;20147;-81
2021/05/06 06:12:39;;;;;;;10.30;2.28;;;16.20;96.70;;;;;;5037904;28;20045;-80
2021/05/06 06:15:14;;;;;;;13.88;2.55;;;16.30;96.70;;;;;;5037237;28;20041;-80
2021/05/06 06:17:45;;;;;;;10.25;2.50;;;16.50;96.70;;;;;;5034140;28;20347;-80
2021/05/06 06:20:13;;;;;;;12.45;2.75;;;16.60;96.70;;;;;;5024439;28;20510;-80
2021/05/06 06:22:42;;;;;;;14.82;3.38;;;16.70;96.70;;;;;;5039283;28;20045;-79
2021/05/06 06:25:11;;;;;;;13.32;2.83;;;16.80;96.70;;;;;;5032724;28;20499;-83
2021/05/06 06:27:40;;;;;;;10.52;2.17;;;16.80;96.70;;;;;;5036760;28;20064;-80
2021/05/06 06:30:11;;;;;;;11.52;1.95;;;16.90;96.70;;;;;;5035573;28;20033;-79
2021/05/06 06:32:40;;;;;;;7.80;1.52;;;17.00;96.70;;;;;;5031049;28;20333;-80
2021/05/06 06:35:09;;;;;;;10.38;1.73;;;17.10;96.70;;;;;;5038893;28;20041;-80
2021/05/06 06:37:37;;;;;;;6.57;1.63;;;17.20;96.70;;;;;;5030738;28;20152;-79
2021/05/06 06:40:06;;;;;;;14.57;2.33;;;17.30;96.70;;;;;;5039182;28;20041;-79
2021/05/06 06:42:34;;;;;;;10.38;1.75;;;17.40;96.70;;;;;;5032982;28;20564;-79
2021/05/06 06:45:04;;;;;;;7.43;1.48;;;17.50;96.60;;;;;;5037527;28;20044;-80
2021/05/06 06:47:32;;;;;;;7.20;1.48;;;17.70;95.70;;;;;;5036553;28;20131;-80
2021/05/06 06:50:00;;;;;;;11.32;1.88;;;17.80;95.70;;;;;;5036473;28;20045;-78
2021/05/06 06:52:27;;;;;;;7.18;1.50;;;17.80;95.10;;;;;;5036247;28;20037;-81
2021/05/06 06:54:55;;;;;;;6.18;1.20;;;17.80;95.20;;;;;;5020093;28;20044;-80
2021/05/06 06:57:23;;;;;;;13.05;2.35;;;17.80;94.50;;;;;;5040895;28;20045;-79
2021/05/06 06:59:52;;;;;;;11.40;1.90;;;17.80;94.80;;;;;;5014856;28;20134;-79
2021/05/06 07:02:21;;;;;;;9.18;2.10;;;17.80;95.00;;;;;;5029273;28;20548;-79
2021/05/06 07:04:49;;;;;;;8.20;1.38;;;17.80;94.70;;;;;;5031588;28;20453;-79
2021/05/06 07:07:18;;;;;;;10.20;1.60;;;17.80;93.70;;;;;;5044760;28;20040;-80
2021/05/06 07:09:47;;;;;;;5.07;1.00;;;17.80;92.80;;;;;;5037332;28;20077;-80
2021/05/06 07:12:15;;;;;;;8.75;1.63;;;17.80;92.80;;;;;;5036506;28;20041;-80
2021/05/06 07:14:43;;;;;;;5.57;1.02;;;17.80;93.70;;;;;;5035171;28;20045;-80
2021/05/06 07:17:12;;;;;;;9.18;1.58;;;17.90;92.70;;;;;;5038155;28;20467;-80
2021/05/06 07:19:41;;;;;;;6.97;1.42;;;17.90;92.10;;;;;;5019389;28;20029;-81
2021/05/06 07:22:09;;;;;;;7.47;1.77;;;17.90;92.00;;;;;;5031750;28;20041;-79
2021/05/06 07:24:39;;;;;;;8.68;1.52;;;17.90;92.50;;;;;;5041381;28;20049;-80
2021/05/06 07:27:11;;;;;;;6.88;1.15;;;17.90;92.60;;;;;;5033783;28;20055;-79
2021/05/06 07:29:40;;;;;;;6.88;1.45;;;17.90;92.50;;;;;;5038631;28;20052;-78
2021/05/06 07:32:10;;;;;;;9.50;1.40;;;18.00;91.80;;;;;;5036088;28;20045;-77
2021/05/06 07:34:42;;;;;;;6.38;1.00;;;18.00;92.40;;;;;;5033308;28;20049;-77
2021/05/06 07:37:11;;;;;;;9.20;1.20;;;18.10;91.00;;;;;;5037208;28;20040;-77
2021/05/06 07:39:41;;;;;;;7.60;1.63;;;18.20;91.10;;;;;;5030490;28;20045;-77
2021/05/06 07:42:11;;;;;;;7.07;1.35;;;18.30;91.70;;;;;;5031729;28;20087;-77
2021/05/06 07:44:40;;;;;;;7.20;1.80;;;18.40;90.40;;;;;;5038128;28;20099;-77
2021/05/06 07:47:11;;;;;;;4.63;1.10;;;18.50;90.60;;;;;;5038612;28;20086;-76
2021/05/06 07:49:48;;;;;;;4.97;0.90;;;18.60;90.40;;;;;;5032932;28;20136;-75
2021/05/06 07:52:21;;;;;;;5.35;0.80;;;18.70;89.20;;;;;;5034088;28;20056;-75
2021/05/06 07:54:56;;;;;;;4.65;1.00;;;18.60;88.30;;;;;;5016383;28;20049;-75
2021/05/06 07:57:24;;;;;;;5.50;1.23;;;18.90;89.70;;;;;;5036579;28;20050;-76
2021/05/06 07:59:52;;;;;;;7.40;1.23;;;18.90;89.90;;;;;;5033026;28;20094;-77
2021/05/06 08:02:21;;;;;;;3.80;0.88;;;18.80;89.60;;;;;;5019277;28;20128;-77
2021/05/06 08:04:50;;;;;;;5.70;1.02;;;18.70;88.50;;;;;;5035803;28;20455;-78
2021/05/06 08:07:18;;;;;;;6.75;0.93;;;18.70;88.60;;;;;;5039095;28;20492;-78
2021/05/06 08:09:47;;;;;;;4.32;0.95;;;18.60;88.30;;;;;;5035979;28;20098;-78
2021/05/06 08:12:16;;;;;;;5.22;1.20;;;18.60;88.60;;;;;;5026190;28;20132;-79
2021/05/06 08:14:43;;;;;;;6.97;1.35;;;18.50;88.90;;;;;;5040829;28;20048;-78
2021/05/06 08:17:11;;;;;;;4.90;1.38;;;18.50;89.90;;;;;;5037488;28;20114;-78
2021/05/06 08:19:40;;;;;;;3.53;1.23;;;18.60;90.70;;;;;;5039398;28;20040;-78
2021/05/06 08:22:09;;;;;;;9.65;1.65;;;18.60;90.30;;;;;;5036306;28;20045;-78
2021/05/06 08:24:37;;;;;;;6.70;0.93;;;18.60;88.80;;;;;;5039136;28;20053;-80
2021/05/06 08:27:08;;;;;;;6.13;1.10;;;18.60;89.00;;;;;;5038299;28;20037;-76
2021/05/06 08:29:36;;;;;;;5.72;1.05;;;18.50;87.00;;;;;;5044838;28;20041;-77
2021/05/06 08:32:05;;;;;;;3.17;1.00;;;18.50;87.30;;;;;;5042417;28;20037;-77
2021/05/06 08:34:33;;;;;;;9.27;1.63;;;18.60;87.60;;;;;;5038809;28;20050;-78
2021/05/06 08:37:01;;;;;;;6.45;1.38;;;18.60;86.40;;;;;;5040202;28;20047;-77
2021/05/06 08:39:30;;;;;;;9.77;1.70;;;18.60;87.70;;;;;;5035516;28;20044;-77
2021/05/06 08:42:00;;;;;;;6.50;1.15;;;18.80;88.90;;;;;;5043450;28;20071;-74
2021/05/06 08:44:33;;;;;;;5.85;1.00;;;19.00;86.30;;;;;;5034060;28;20073;-73
2021/05/06 08:47:21;;;;;;;8.05;1.48;;;19.10;87.20;;;;;;5036252;28;20044;-74
2021/05/06 08:49:51;;;;;;;8.48;2.45;;;19.10;89.10;;;;;;5026484;28;20041;-74
2021/05/06 08:52:20;;;;;;;6.32;1.40;;;19.30;88.10;;;;;;5042058;28;20033;-74
2021/05/06 08:54:50;;;;;;;6.10;1.40;;;19.30;86.50;;;;;;5039471;28;20041;-75
2021/05/06 08:57:20;;;;;;;8.43;2.28;;;19.30;84.90;;;;;;5034563;28;20052;-75
2021/05/06 08:59:50;;;;;;;6.70;1.75;;;19.30;85.20;;;;;;5039519;28;20055;-75
2021/05/06 09:02:18;;;;;;;5.45;1.10;;;19.30;84.30;;;;;;5033579;28;20049;-74
2021/05/06 09:04:47;;;;;;;5.35;0.93;;;19.30;84.90;;;;;;5039270;28;20049;-74
2021/05/06 09:07:14;;;;;;;4.53;0.93;;;19.40;85.20;;;;;;5034453;28;20076;-73
2021/05/06 09:09:46;;;;;;;4.03;1.10;;;19.30;85.10;;;;;;5039194;28;20073;-74
2021/05/06 09:12:17;;;;;;;8.60;1.60;;;19.10;85.10;;;;;;5035558;28;20044;-74
2021/05/06 09:14:47;;;;;;;4.15;0.77;;;19.10;85.30;;;;;;5035888;28;20098;-75
2021/05/06 09:17:26;;;;;;;4.45;1.35;;;19.10;84.20;;;;;;5022277;28;20067;-75
2021/05/06 09:19:57;;;;;;;5.95;1.35;;;19.30;85.10;;;;;;5044947;28;20037;-75
2021/05/06 09:22:35;;;;;;;5.28;1.20;;;19.40;84.00;;;;;;5038892;28;20507;-76
2021/05/06 09:25:25;;;;;;;4.85;0.95;;;19.60;83.00;;;;;;5038327;28;20530;-75
2021/05/06 09:28:09;;;;;;;4.57;1.13;;;19.70;83.10;;;;;;5036527;28;20561;-75
2021/05/06 09:30:47;;;;;;;7.65;1.20;;;19.70;83.30;;;;;;5039464;28;20115;-75
2021/05/06 09:33:16;;;;;;;5.18;1.38;;;19.80;83.30;;;;;;5033494;28;20325;-74
2021/05/06 09:35:45;;;;;;;7.57;1.38;;;19.80;84.40;;;;;;5051152;28;20071;-74
2021/05/06 09:38:32;;;;;;;6.45;1.20;;;19.80;84.90;;;;;;5031849;28;20491;-73
2021/05/06 09:41:02;;;;;;;5.85;1.10;;;19.80;82.50;;;;;;5034937;28;20879;-75
2021/05/06 09:43:33;;;;;;;7.35;1.25;;;19.90;81.00;;;;;;5036509;28;20136;-74
2021/05/06 09:46:26;;;;;;;5.18;1.25;;;19.90;80.20;;;;;;5043216;28;20818;-74
2021/05/06 09:48:58;;;;;;;3.72;1.27;;;20.00;81.20;;;;;;5036696;28;20049;-74
2021/05/06 09:51:34;;;;;;;5.75;1.10;;;20.10;81.20;;;;;;5036619;28;20049;-74
2021/05/06 09:54:04;;;;;;;8.00;1.23;;;20.20;82.20;;;;;;5039769;28;20124;-74
2021/05/06 09:56:33;;;;;;;6.25;1.17;;;20.10;80.40;;;;;;5049667;28;20045;-74
2021/05/06 09:59:02;;;;;;;4.70;1.38;;;20.00;79.90;;;;;;5045946;28;20651;-75
2021/05/06 10:01:37;;;;;;;4.18;1.10;;;20.00;81.10;;;;;;5012635;28;20128;-74
2021/05/06 10:04:13;;;;;;;6.43;1.33;;;19.90;78.50;;;;;;5027852;28;20143;-75
2021/05/06 10:06:41;;;;;;;7.82;1.15;;;20.10;80.30;;;;;;5030400;28;20132;-74
2021/05/06 10:09:09;;;;;;;5.05;0.93;;;20.30;80.40;;;;;;5019123;28;20048;-75
2021/05/06 10:11:37;;;;;;;5.18;1.08;;;20.10;80.30;;;;;;5047942;28;20099;-75
2021/05/06 10:14:06;;;;;;;4.60;1.10;;;20.10;80.30;;;;;;5037941;28;20059;-77
2021/05/06 10:16:34;;;;;;;6.88;0.95;;;20.20;80.60;;;;;;5033646;28;20533;-74
2021/05/06 10:19:03;;;;;;;4.18;1.08;;;20.30;81.40;;;;;;5039283;28;20044;-73
2021/05/06 10:21:31;;;;;;;6.60;1.17;;;20.10;81.30;;;;;;5035533;28;20531;-74
2021/05/06 10:24:01;;;;;;;5.70;0.88;;;20.00;81.20;;;;;;5036348;28;20056;-73
2021/05/06 10:26:29;;;;;;;6.78;1.40;;;20.30;82.40;;;;;;5038475;28;20516;-78
2021/05/06 10:28:58;;;;;;;6.18;1.20;;;20.30;82.20;;;;;;5039829;28;20036;-74
2021/05/06 10:31:27;;;;;;;4.53;1.10;;;20.20;81.10;;;;;;5022168;28;20052;-73
2021/05/06 10:33:55;;;;;;;10.48;1.30;;;20.30;82.70;;;;;;5039564;28;20544;-74
2021/05/06 10:36:23;;;;;;;6.78;1.30;;;20.50;82.60;;;;;;5035730;28;20052;-74
2021/05/06 10:38:51;;;;;;;6.30;0.90;;;20.50;82.90;;;;;;5038778;28;20029;-74
2021/05/06 10:41:31;;;;;;;5.90;1.20;;;20.50;82.90;;;;;;5032421;28;20511;-75
2021/05/06 10:44:01;;;;;;;6.30;1.20;;;20.30;82.30;;;;;;5038571;28;20081;-74
2021/05/06 10:47:02;;;;;;;4.50;0.68;;;20.40;83.70;;;;;;5043725;28;20526;-73
2021/05/06 10:49:31;;;;;;;5.72;0.85;;;20.30;82.50;;;;;;5021217;28;20518;-73
2021/05/06 10:52:00;;;;;;;7.65;1.02;;;20.50;81.80;;;;;;5035012;28;20044;-74
2021/05/06 10:54:40;;;;;;;4.75;0.93;;;20.40;80.70;;;;;;5040546;28;20429;-74
2021/05/06 10:57:27;;;;;;;6.85;1.50;;;20.40;79.90;;;;;;5035698;28;20037;-75
2021/05/06 10:59:55;;;;;;;5.50;0.82;;;20.40;80.60;;;;;;5017731;28;20043;-74
2021/05/06 11:02:49;;;;;;;4.68;0.88;;;20.50;78.90;;;;;;5031538;28;20036;-74
2021/05/06 11:05:19;;;;;;;7.72;1.02;;;20.50;79.20;;;;;;5024531;28;20064;-74
2021/05/06 11:08:27;;;;;;;3.45;0.93;;;20.70;79.70;;;;;;5014814;28;20037;-73
2021/05/06 11:11:14;;;;;;;9.88;1.25;;;20.70;80.00;;;;;;4962123;28;20050;-74
2021/05/06 11:14:06;;;;;;;5.93;2.15;;;21.10;79.40;;;;;;5013025;28;20065;-74
2021/05/06 11:16:34;;;;;;;6.88;1.95;;;20.80;78.20;;;;;;5035344;28;20040;-72
2021/05/06 11:19:04;;;;;;;6.07;1.30;;;20.60;79.70;;;;;;5029518;28;20125;-73
2021/05/06 11:21:37;;;;;;;6.78;0.98;;;20.60;79.70;;;;;;5037938;28;20047;-73
2021/05/06 11:24:17;;;;;;;3.33;1.08;;;20.60;79.10;;;;;;5020945;28;20041;-73
2021/05/06 11:27:22;;;;;;;6.85;1.27;;;20.80;79.00;;;;;;5034453;28;20453;-73
2021/05/06 11:29:52;;;;;;;6.18;0.90;;;20.90;79.10;;;;;;4934942;28;20043;-73
2021/05/06 11:32:24;;;;;;;5.90;0.95;;;20.70;79.80;;;;;;4955545;28;20049;-74
2021/05/06 11:34:54;;;;;;;8.07;1.35;;;20.90;79.60;;;;;;4943969;28;20078;-74
2021/05/06 11:37:26;;;;;;;6.13;1.10;;;20.80;78.90;;;;;;4954113;28;20568;-73
2021/05/06 11:40:00;;;;;;;4.95;0.73;;;20.90;79.70;;;;;;4960214;28;20285;-73
2021/05/06 11:42:37;;;;;;;4.38;0.90;;;21.00;79.60;;;;;;4948447;28;20050;-72
2021/05/06 11:45:13;;;;;;;4.82;0.93;;;21.00;78.60;;;;;;4956370;28;20061;-73
2021/05/06 11:47:42;;;;;;;6.22;1.15;;;20.80;80.00;;;;;;4942281;28;20230;-73
2021/05/06 11:50:24;;;;;;;8.27;1.30;;;20.80;79.20;;;;;;4973685;28;20050;-73
2021/05/06 11:52:53;;;;;;;3.78;1.05;;;21.00;80.20;;;;;;4960924;28;20042;-73
2021/05/06 11:55:40;;;;;;;5.45;0.90;;;20.70;80.20;;;;;;4962840;28;20483;-72
2021/05/06 11:58:09;;;;;;;5.28;1.20;;;20.80;79.40;;;;;;4942467;28;20532;-73
2021/05/06 12:00:40;;;;;;;5.57;1.00;;;20.90;79.00;;;;;;4984013;28;20517;-73
2021/05/06 12:03:10;;;;;;;4.97;1.20;;;20.90;78.80;;;;;;5036675;28;20136;-73
2021/05/06 12:05:51;;;;;;;6.82;1.35;;;20.90;78.10;;;;;;5040021;28;20045;-72
2021/05/06 12:08:20;;;;;;;4.32;1.00;;;21.00;78.60;;;;;;5036468;28;20139;-74
2021/05/06 12:10:49;;;;;;;7.20;1.63;;;20.90;79.20;;;;;;5036635;28;21291;-73
2021/05/06 12:13:24;;;;;;;5.43;0.90;;;21.20;79.50;;;;;;5035504;28;20053;-73
2021/05/06 12:15:52;;;;;;;5.70;1.00;;;21.00;79.50;;;;;;5028620;28;20053;-73
2021/05/06 12:18:22;;;;;;;3.08;0.73;;;21.00;77.70;;;;;;5022188;28;20037;-73
2021/05/06 12:20:57;;;;;;;5.57;1.27;;;21.30;78.10;;;;;;5032671;28;20216;-73
2021/05/06 12:23:25;;;;;;;6.35;1.27;;;21.30;78.80;;;;;;5057718;28;20054;-74
2021/05/06 12:25:53;;;;;;;4.22;0.82;;;21.30;79.20;;;;;;5041691;28;20045;-74
2021/05/06 12:28:21;;;;;;;5.70;1.08;;;21.30;79.90;;;;;;5039802;28;20033;-74
2021/05/06 12:30:56;;;;;;;5.68;1.33;;;21.20;78.40;;;;;;5034725;28;20044;-74
2021/05/06 12:33:30;;;;;;;6.93;1.23;;;21.10;80.00;;;;;;5039541;28;20045;-74
2021/05/06 12:36:00;;;;;;;5.13;0.95;;;21.10;80.20;;;;;;5024900;28;20048;-75
2021/05/06 12:38:29;;;;;;;8.00;1.30;;;21.10;80.00;;;;;;5022314;28;20399;-73
2021/05/06 12:41:03;;;;;;;10.23;2.00;;;21.00;78.90;;;;;;5041270;28;20060;-73
2021/05/06 12:43:32;;;;;;;6.53;1.70;;;20.70;80.40;;;;;;5041742;28;20040;-73
2021/05/06 12:46:03;;;;;;;6.05;1.45;;;20.70;81.30;;;;;;5039908;28;20362;-72
2021/05/06 12:48:50;;;;;;;5.43;1.45;;;20.90;81.40;;;;;;5029965;28;20068;-73
2021/05/06 12:51:25;;;;;;;6.55;1.08;;;21.10;81.30;;;;;;5022654;28;20501;-73
2021/05/06 12:54:04;;;;;;;3.13;0.77;;;21.00;81.90;;;;;;5038594;28;20040;-73
2021/05/06 12:56:33;;;;;;;5.10;1.02;;;21.10;80.50;;;;;;5035992;28;20037;-73
2021/05/06 12:59:27;;;;;;;13.57;1.80;;;21.10;81.20;;;;;;5037177;28;20542;-73
2021/05/06 13:02:07;;;;;;;5.63;1.05;;;21.00;80.70;;;;;;5042774;28;20045;-72
2021/05/06 13:04:43;;;;;;;4.30;1.02;;;21.00;81.60;;;;;;5041310;28;20556;-73
2021/05/06 13:07:12;;;;;;;3.77;1.10;;;21.10;79.80;;;;;;5026782;28;20045;-73
2021/05/06 13:09:45;;;;;;;6.40;1.23;;;21.10;80.80;;;;;;5037754;28;20123;-73
2021/05/06 13:12:15;;;;;;;6.00;1.20;;;21.20;81.10;;;;;;5036033;28;20572;-73
2021/05/06 13:14:46;;;;;;;7.63;1.77;;;21.10;80.70;;;;;;5035939;28;20107;-73
2021/05/06 13:17:28;;;;;;;6.85;0.95;;;21.10;81.40;;;;;;5038561;28;20073;-73
2021/05/06 13:19:58;;;;;;;6.60;1.50;;;21.00;82.30;;;;;;5038898;28;20568;-72
2021/05/06 13:22:27;;;;;;;6.78;1.20;;;20.70;82.40;;;;;;5041652;28;20049;-73
2021/05/06 13:24:56;;;;;;;6.75;1.75;;;20.70;82.10;;;;;;5038980;28;20049;-73
2021/05/06 13:27:27;;;;;;;4.15;0.98;;;20.80;82.60;;;;;;5040888;28;20515;-73
2021/05/06 13:29:59;;;;;;;7.80;1.77;;;21.10;81.20;;;;;;5038475;28;20048;-73
2021/05/06 13:32:35;;;;;;;7.15;1.30;;;21.40;82.10;;;;;;5035805;28;20081;-74
2021/05/06 13:35:04;;;;;;;4.40;1.25;;;22.00;81.40;;;;;;5035192;28;20430;-73
2021/05/06 13:37:37;;;;;;;5.43;0.90;;;22.00;81.30;;;;;;5040702;28;20036;-72
2021/05/06 13:40:07;;;;;;;5.07;1.38;;;21.90;80.90;;;;;;5037130;28;20053;-74
2021/05/06 13:42:34;;;;;;;5.88;1.10;;;21.90;81.80;;;;;;5033459;28;20033;-73
2021/05/06 13:45:04;;;;;;;5.32;1.20;;;21.90;81.40;;;;;;5046338;28;20052;-74
2021/05/06 13:47:32;;;;;;;5.82;1.58;;;22.00;81.00;;;;;;5040925;28;20069;-73
2021/05/06 13:49:59;;;;;;;4.97;1.13;;;22.20;80.40;;;;;;5038843;28;20049;-74
2021/05/06 13:52:32;;;;;;;5.60;1.10;;;21.60;81.30;;;;;;5035121;28;20052;-73
2021/05/06 13:55:02;;;;;;;4.70;1.00;;;22.20;81.10;;;;;;5043411;28;20039;-74
2021/05/06 13:57:32;;;;;;;3.88;0.93;;;22.40;80.10;;;;;;5039774;28;20093;-74
2021/05/06 14:00:00;;;;;;;5.90;1.17;;;22.40;79.20;;;;;;5021665;28;20499;-73
2021/05/06 14:02:28;;;;;;;2.97;0.57;;;22.90;79.80;;;;;;5022502;28;20045;-73
2021/05/06 14:04:56;;;;;;;5.80;1.08;;;22.70;76.80;;;;;;5021764;28;20090;-73
2021/05/06 14:07:24;;;;;;;2.28;0.60;;;22.60;77.70;;;;;;5040045;28;20280;-72
2021/05/06 14:09:54;;;;;;;3.83;0.77;;;22.60;77.20;;;;;;5021325;28;20051;-74
2021/05/06 14:12:23;;;;;;;4.63;1.00;;;22.90;76.40;;;;;;5039525;28;20037;-75
2021/05/06 14:14:51;;;;;;;4.70;1.00;;;23.00;75.80;;;;;;5030573;28;20047;-74
2021/05/06 14:17:19;;;;;;;1.95;0.70;;;23.00;76.80;;;;;;5036856;28;20140;-73
2021/05/06 14:19:47;;;;;;;7.97;0.80;;;23.20;75.30;;;;;;5037590;28;20037;-74
2021/05/06 14:22:15;;;;;;;2.60;0.95;;;22.90;75.40;;;;;;5041512;28;20044;-73
2021/05/06 14:24:44;;;;;;;4.00;0.90;;;23.00;75.00;;;;;;5036252;28;20525;-74
2021/05/06 14:27:11;;;;;;;3.45;0.73;;;23.40;74.60;;;;;;5038199;28;20536;-74
2021/05/06 14:29:40;;;;;;;2.92;0.80;;;23.60;75.00;;;;;;5033476;28;20512;-73
2021/05/06 14:32:08;;;;;;;5.13;0.65;;;24.00;74.50;;;;;;5035414;28;20033;-73
2021/05/06 14:34:36;;;;;;;3.85;0.70;;;23.80;73.90;;;;;;5033507;28;20129;-73
2021/05/06 14:37:04;;;;;;;3.15;0.68;;;23.70;73.90;;;;;;5033363;28;20554;-75
2021/05/06 14:39:32;;;;;;;2.50;0.60;;;24.10;74.40;;;;;;5034739;28;20123;-73
2021/05/06 14:42:00;;;;;;;3.22;0.55;;;24.20;73.50;;;;;;5038248;28;20285;-74
2021/05/06 14:44:27;;;;;;;2.58;0.73;;;24.10;73.20;;;;;;5034214;28;20140;-75
2021/05/06 14:46:57;;;;;;;6.50;0.60;;;24.00;73.00;;;;;;5042487;28;20048;-74
2021/05/06 14:49:25;;;;;;;2.67;0.60;;;24.00;73.50;;;;;;5039309;28;20061;-74
2021/05/06 14:51:53;;;;;;;4.25;0.57;;;24.20;73.80;;;;;;5038233;28;20040;-74
2021/05/06 14:54:21;;;;;;;5.75;0.88;;;24.20;73.90;;;;;;5033720;28;20072;-74
2021/05/06 14:56:49;;;;;;;5.53;0.90;;;24.20;73.40;;;;;;5038883;28;20087;-74
2021/05/06 14:59:16;;;;;;;3.08;0.70;;;24.20;74.00;;;;;;5039368;28;20114;-74
2021/05/06 15:01:44;;;;;;;2.55;0.90;;;24.90;73.00;;;;;;5031761;28;20427;-75
2021/05/06 15:04:13;;;;;;;5.53;1.00;;;25.40;72.50;;;;;;5035275;28;20091;-74
2021/05/06 15:06:41;;;;;;;5.53;0.70;;;25.20;71.80;;;;;;5041117;28;20178;-74
2021/05/06 15:09:09;;;;;;;2.42;0.60;;;25.10;72.20;;;;;;5035727;28;20198;-74
2021/05/06 15:11:37;;;;;;;3.83;0.70;;;24.80;72.10;;;;;;5043306;28;20658;-74
2021/05/06 15:14:06;;;;;;;2.50;0.88;;;24.60;73.10;;;;;;5032939;28;20631;-75
2021/05/06 15:16:34;;;;;;;2.83;0.93;;;24.80;73.70;;;;;;5037311;28;20045;-73
2021/05/06 15:19:02;;;;;;;3.45;0.80;;;25.30;72.90;;;;;;5040914;28;20379;-74
2021/05/06 15:21:31;;;;;;;2.47;0.70;;;25.30;73.00;;;;;;5040655;28;20049;-75
2021/05/06 15:23:59;;;;;;;1.98;0.38;;;25.60;73.00;;;;;;5035753;28;20522;-75
2021/05/06 15:26:27;;;;;;;2.70;0.65;;;25.60;72.00;;;;;;5041310;28;20045;-74
2021/05/06 15:28:54;;;;;;;6.50;1.00;;;25.60;72.50;;;;;;5034862;28;20045;-74
2021/05/06 15:31:22;;;;;;;3.45;0.60;;;26.00;72.90;;;;;;5031083;28;20079;-74
2021/05/06 15:33:50;;;;;;;2.03;0.75;;;26.20;71.60;;;;;;5037133;28;20036;-74
2021/05/06 15:36:18;;;;;;;3.72;0.73;;;26.30;71.60;;;;;;5036999;28;20033;-74
2021/05/06 15:38:47;;;;;;;3.88;0.70;;;26.50;71.20;;;;;;5036004;28;20040;-74
2021/05/06 15:41:15;;;;;;;4.97;0.50;;;26.90;71.50;;;;;;5035293;28;20521;-74
2021/05/06 15:43:43;;;;;;;1.83;0.60;;;26.80;70.50;;;;;;5032565;28;20048;-75
2021/05/06 15:46:16;;;;;;;2.10;0.52;;;26.80;70.60;;;;;;5032285;28;20061;-73
2021/05/06 15:48:45;;;;;;;3.35;0.65;;;26.60;70.30;;;;;;5038072;28;20049;-73
2021/05/06 15:51:12;;;;;;;1.98;0.70;;;26.20;71.50;;;;;;5037489;28;20041;-75
2021/05/06 15:53:43;;;;;;;4.05;0.82;;;26.70;70.90;;;;;;5035364;28;20058;-74
2021/05/06 15:56:12;;;;;;;3.67;0.65;;;26.80;70.90;;;;;;5016498;28;20045;-75
2021/05/06 15:58:41;;;;;;;4.32;0.73;;;27.20;70.60;;;;;;5022772;28;20506;-75
2021/05/06 16:01:09;;;;;;;2.90;0.57;;;28.00;69.50;;;;;;5035738;28;20046;-75
2021/05/06 16:03:46;;;;;;;2.67;0.80;;;28.00;69.10;;;;;;5036944;28;20533;-74
2021/05/06 16:06:14;;;;;;;2.80;0.60;;;28.30;68.30;;;;;;5020803;28;20422;-74
2021/05/06 16:08:42;;;;;;;3.25;0.68;;;28.30;68.10;;;;;;5037927;28;20051;-74
2021/05/06 16:11:11;;;;;;;3.95;0.82;;;28.70;68.10;;;;;;5034397;28;20045;-74
2021/05/06 16:13:39;;;;;;;3.28;1.02;;;28.80;67.70;;;;;;5029256;28;20059;-74
2021/05/06 16:16:07;;;;;;;4.90;1.00;;;28.10;68.80;;;;;;5039417;28;20280;-74
2021/05/06 16:18:39;;;;;;;6.07;1.10;;;28.50;68.40;;;;;;5018622;28;20526;-75
2021/05/06 16:21:07;;;;;;;4.13;0.77;;;28.70;67.60;;;;;;5037392;28;20041;-75
2021/05/06 16:23:38;;;;;;;3.25;0.70;;;28.60;66.80;;;;;;5034238;28;20061;-75
2021/05/06 16:26:06;;;;;;;3.20;1.08;;;28.30;67.60;;;;;;5036209;28;20711;-74
2021/05/06 16:28:35;;;;;;;3.90;0.93;;;27.50;69.20;;;;;;5042164;28;20037;-74
2021/05/06 16:31:03;;;;;;;6.22;0.88;;;28.10;68.40;;;;;;5032951;28;20045;-74
2021/05/06 16:33:36;;;;;;;2.20;0.50;;;28.00;67.30;;;;;;5039740;28;20137;-74
2021/05/06 16:36:20;;;;;;;2.42;0.55;;;28.20;68.00;;;;;;5043826;28;20040;-74
2021/05/06 16:39:07;;;;;;;4.80;1.08;;;28.80;65.60;;;;;;5040687;28;20429;-75
2021/05/06 16:42:01;;;;;;;3.40;0.90;;;29.40;66.40;;;;;;5040594;28;20041;-75
2021/05/06 16:44:27;;;;;;;2.75;0.80;;;30.00;64.90;;;;;;5041647;28;20490;-75
2021/05/06 16:46:56;;;;;;;3.08;0.77;;;29.90;64.70;;;;;;5037870;28;20045;-75
2021/05/06 16:49:25;;;;;;;5.63;1.05;;;30.20;64.30;;;;;;5040426;28;21207;-75
2021/05/06 16:51:53;;;;;;;6.43;1.17;;;29.90;64.60;;;;;;5035347;28;20041;-75
2021/05/06 16:54:21;;;;;;;4.03;1.02;;;29.60;64.80;;;;;;5023867;28;20040;-75
2021/05/06 16:56:53;;;;;;;4.00;1.13;;;28.10;67.60;;;;;;5034840;28;20124;-75
2021/05/06 16:59:22;;;;;;;3.53;0.65;;;27.60;68.70;;;;;;5041629;28;20079;-75
2021/05/06 17:01:51;;;;;;;4.13;0.70;;;28.60;67.30;;;;;;5041412;28;20136;-74
2021/05/06 17:04:19;;;;;;;5.55;1.23;;;27.70;67.20;;;;;;5037845;28;20502;-75
2021/05/06 17:06:46;;;;;;;5.43;1.00;;;27.80;68.40;;;;;;5041352;28;20045;-75
2021/05/06 17:09:14;;;;;;;5.25;0.90;;;28.40;67.60;;;;;;5032927;28;20126;-75
2021/05/06 17:11:42;;;;;;;5.55;1.13;;;28.50;67.30;;;;;;5041775;28;20128;-75
2021/05/06 17:14:10;;;;;;;4.15;1.00;;;27.80;66.90;;;;;;5037104;28;20041;-75